Time;durP1;ratioP1;P1;durP2;ratioP2;P2;SDS_P1;SDS_P2;PMS_P1;PMS_P2;Temp;Humidity;BMP_temperature;BMP_pressure;BME280_temperature;BME280_humidity;BME280_pressure;Samples;Min_cycle;Max_cycle;Signal;HPM_P1;HPM_P2
2021/01/16 00:01:06;;;;;;;23.90;9.03;;;;;;;-8.04;67.51;99005.45;124626;1143;22661;-69
2021/01/16 00:03:33;;;;;;;14.23;6.87;;;;;;;-8.00;67.58;98998.06;124686;1142;22693;-69
2021/01/16 00:06:03;;;;;;;43.73;16.57;;;;;;;-8.03;67.48;99007.12;124526;1144;22717;-70
2021/01/16 00:08:32;;;;;;;51.10;14.83;;;;;;;-8.06;67.28;98993.38;124654;1144;23888;-69
2021/01/16 00:11:00;;;;;;;19.73;7.87;;;;;;;-8.00;67.56;99004.17;124504;1144;22708;-69
2021/01/16 00:13:45;;;;;;;13.43;7.07;;;;;;;-7.99;67.31;99008.48;124752;1142;22650;-69
2021/01/16 00:16:13;;;;;;;21.57;8.77;;;;;;;-8.00;67.43;99000.70;124528;1142;22686;-69
2021/01/16 00:18:40;;;;;;;18.70;8.07;;;;;;;-7.98;67.42;99010.14;124640;1142;24042;-69
2021/01/16 00:21:08;;;;;;;16.93;8.33;;;;;;;-7.97;67.52;99006.52;124487;1144;22717;-69
2021/01/16 00:23:36;;;;;;;17.30;7.77;;;;;;;-7.93;67.61;99013.14;124655;1144;22668;-69
2021/01/16 00:26:03;;;;;;;17.90;9.07;;;;;;;-7.92;67.87;99001.59;124561;1144;23986;-68
2021/01/16 00:28:32;;;;;;;15.03;7.30;;;;;;;-7.94;67.43;99010.67;124765;1143;22774;-69
2021/01/16 00:31:00;;;;;;;14.40;8.20;;;;;;;-7.99;67.63;99005.84;124715;1143;23282;-69
2021/01/16 00:33:31;;;;;;;17.90;7.97;;;;;;;-8.00;67.80;99000.70;124575;1143;23475;-69
2021/01/16 00:35:58;;;;;;;28.13;9.70;;;;;;;-8.04;67.56;99010.75;124753;1144;22647;-69
2021/01/16 00:38:26;;;;;;;22.03;10.30;;;;;;;-8.21;67.45;99015.05;124567;1144;22705;-69
2021/01/16 00:40:54;;;;;;;25.80;11.30;;;;;;;-8.45;66.98;99025.43;124720;1142;23472;-69
2021/01/16 00:43:22;;;;;;;25.27;9.93;;;;;;;-8.61;67.81;99027.89;124522;1144;22649;-69
2021/01/16 00:45:50;;;;;;;18.53;7.40;;;;;;;-8.74;67.29;99014.22;124749;1143;22696;-68
2021/01/16 00:48:19;;;;;;;15.40;8.67;;;;;;;-8.87;66.62;99013.75;124485;1143;23453;-68
2021/01/16 00:50:51;;;;;;;18.30;8.93;;;;;;;-9.01;67.00;99013.27;124668;1142;22674;-69
2021/01/16 00:53:21;;;;;;;20.73;9.13;;;;;;;-9.13;67.70;99014.44;124594;1142;23427;-69
2021/01/16 00:55:57;;;;;;;16.27;7.83;;;;;;;-9.26;67.94;99021.02;124624;1144;22692;-68
2021/01/16 00:58:29;;;;;;;19.17;8.27;;;;;;;-9.35;68.27;99020.06;124502;1143;22716;-68
2021/01/16 01:01:20;;;;;;;17.93;8.90;;;;;;;-9.45;67.52;99020.11;124638;1144;22688;-69
2021/01/16 01:03:47;;;;;;;18.17;8.53;;;;;;;-9.56;68.24;99022.09;124563;1142;22785;-68
2021/01/16 01:06:15;;;;;;;18.27;6.70;;;;;;;-9.74;67.37;99028.09;124692;1142;23408;-68
2021/01/16 01:08:42;;;;;;;13.25;7.50;;;;;;;-9.90;66.90;99032.27;124641;1143;22664;-68
2021/01/16 01:11:10;;;;;;;14.50;6.73;;;;;;;-10.14;67.56;99037.98;124604;1143;22760;-68
2021/01/16 01:13:37;;;;;;;14.17;6.87;;;;;;;-10.34;69.45;99045.08;124675;1143;22991;-68
2021/01/16 01:16:06;;;;;;;12.97;6.60;;;;;;;-10.44;69.29;99037.18;124792;1142;22678;-68
2021/01/16 01:18:33;;;;;;;12.87;5.30;;;;;;;-10.54;68.58;99036.34;124694;1142;22692;-68
2021/01/16 01:21:01;;;;;;;16.07;6.90;;;;;;;-10.60;69.20;99042.14;124703;1143;22667;-68
2021/01/16 01:23:28;;;;;;;11.07;5.27;;;;;;;-10.63;68.85;99046.84;124536;1142;22767;-68
2021/01/16 01:25:55;;;;;;;10.23;5.00;;;;;;;-10.73;68.92;99041.56;124781;1143;22672;-68
2021/01/16 01:28:23;;;;;;;9.53;4.93;;;;;;;-10.77;69.13;99040.16;124674;1143;23539;-68
2021/01/16 01:30:56;;;;;;;8.40;4.17;;;;;;;-10.78;69.71;99038.50;124674;1142;23446;-68
2021/01/16 01:33:24;;;;;;;8.70;3.90;;;;;;;-10.85;70.15;99027.70;124651;1143;23489;-68
2021/01/16 01:35:51;;;;;;;12.00;5.10;;;;;;;-10.87;69.91;99026.16;124543;1143;22695;-70
2021/01/16 01:38:18;;;;;;;9.00;4.20;;;;;;;-10.86;70.59;99033.92;124622;1143;22696;-68
2021/01/16 01:40:46;;;;;;;13.90;5.20;;;;;;;-10.87;70.54;99037.52;124588;1143;22767;-68
2021/01/16 01:43:13;;;;;;;11.80;5.10;;;;;;;-10.96;69.01;99034.88;124800;1142;22764;-69
2021/01/16 01:45:41;;;;;;;13.37;5.27;;;;;;;-11.05;69.35;99038.28;124644;1143;22676;-68
2021/01/16 01:48:10;;;;;;;16.50;6.97;;;;;;;-11.13;69.53;99042.43;124781;1142;23451;-68
2021/01/16 01:50:37;;;;;;;13.60;6.03;;;;;;;-11.19;69.81;99034.23;124623;1142;22703;-68
2021/01/16 01:53:05;;;;;;;11.13;4.93;;;;;;;-11.21;69.61;99047.50;124710;1142;22682;-68
2021/01/16 01:55:33;;;;;;;11.70;5.03;;;;;;;-11.24;69.99;99037.24;124658;1143;22719;-68
2021/01/16 01:58:07;;;;;;;14.97;5.53;;;;;;;-11.22;70.78;99037.95;124668;1143;22719;-68
2021/01/16 02:00:34;;;;;;;13.33;5.80;;;;;;;-11.20;69.37;99035.19;124668;1143;22747;-68
2021/01/16 02:03:01;;;;;;;11.90;5.80;;;;;;;-11.28;70.36;99041.13;124835;1143;22656;-68
2021/01/16 02:05:29;;;;;;;11.07;5.27;;;;;;;-11.31;69.78;99040.55;124521;1143;22709;-68
2021/01/16 02:07:58;;;;;;;13.10;5.35;;;;;;;-11.34;70.07;99036.38;124793;1143;23375;-68
2021/01/16 02:10:26;;;;;;;15.80;5.97;;;;;;;-11.37;70.48;99047.15;124619;1143;22682;-68
2021/01/16 02:12:55;;;;;;;11.63;6.00;;;;;;;-11.43;69.51;99052.95;124777;1142;22676;-68
2021/01/16 02:15:36;;;;;;;13.17;5.33;;;;;;;-11.43;70.07;99063.47;124194;1142;23594;-68
2021/01/16 02:18:19;;;;;;;13.10;5.30;;;;;;;-11.35;69.75;99063.63;124684;1142;22727;-68
2021/01/16 02:20:47;;;;;;;16.43;6.90;;;;;;;-11.29;69.05;99063.12;124605;1142;22723;-68
2021/01/16 02:23:29;;;;;;;11.37;5.23;;;;;;;-11.36;67.82;99067.22;124718;1142;22677;-68
2021/01/16 02:26:19;;;;;;;11.80;5.00;;;;;;;-11.35;68.00;99065.42;124565;1143;22712;-69
2021/01/16 02:28:56;;;;;;;10.53;4.97;;;;;;;-11.40;67.63;99062.38;124743;1142;22709;-68
2021/01/16 02:31:37;;;;;;;14.05;5.90;;;;;;;-11.40;67.76;99073.72;124590;1143;22773;-68
2021/01/16 02:34:05;;;;;;;14.57;5.70;;;;;;;-11.37;68.06;99065.55;124846;1142;23482;-68
2021/01/16 02:37:12;;;;;;;10.27;5.10;;;;;;;-11.37;67.10;99070.81;124689;1143;22700;-68
2021/01/16 02:39:45;;;;;;;9.23;4.37;;;;;;;-11.36;67.36;99075.11;124773;1143;22712;-68
2021/01/16 02:42:17;;;;;;;13.93;4.40;;;;;;;-11.39;66.12;99070.10;124692;1143;23185;-68
2021/01/16 02:44:55;;;;;;;14.10;5.77;;;;;;;-11.45;65.35;99066.22;124699;1142;22688;-68
2021/01/16 02:47:29;;;;;;;9.93;4.83;;;;;;;-11.48;65.82;99071.73;120394;1143;23379;-67
2021/01/16 02:50:07;;;;;;;11.80;5.37;;;;;;;-11.50;65.42;99065.77;124720;1142;23253;-68
2021/01/16 02:52:44;;;;;;;11.17;5.00;;;;;;;-11.52;65.44;99067.69;124710;1143;22682;-68
2021/01/16 02:55:12;;;;;;;;;;;;;;;-11.52;64.80;99065.06;124831;1143;23316;-68
2021/01/16 02:57:39;;;;;;;10.03;5.67;;;;;;;-11.60;64.52;99070.14;124640;1142;21421;-68
2021/01/16 03:00:11;;;;;;;13.77;5.50;;;;;;;-11.65;64.58;99069.69;124742;1142;22699;-68
2021/01/16 03:02:39;;;;;;;12.90;6.33;;;;;;;-11.73;64.94;99076.56;124634;1142;27458;-68
2021/01/16 03:05:07;;;;;;;15.47;6.37;;;;;;;-11.81;65.04;99074.59;124791;1142;22694;-68
2021/01/16 03:07:35;;;;;;;10.97;4.47;;;;;;;-11.88;64.03;99073.45;124598;1142;22962;-68
2021/01/16 03:10:05;;;;;;;15.20;6.80;;;;;;;-11.98;64.21;99073.39;124808;1143;22693;-68
2021/01/16 03:12:33;;;;;;;10.83;5.30;;;;;;;-12.13;64.69;99058.91;124727;1142;23611;-68
2021/01/16 03:15:14;;;;;;;14.45;5.60;;;;;;;-11.99;64.80;99076.14;124752;1143;22677;-67
2021/01/16 03:17:48;;;;;;;26.27;9.83;;;;;;;-12.02;64.64;99079.84;124722;1142;22667;-67
2021/01/16 03:20:20;;;;;;;27.83;9.70;;;;;;;-12.09;65.03;99093.59;124767;1142;22720;-67
2021/01/16 03:22:51;;;;;;;18.77;8.37;;;;;;;-12.09;64.53;99094.42;124725;1143;23323;-67
2021/01/16 03:25:20;;;;;;;11.00;5.83;;;;;;;-12.08;65.06;99092.63;124752;1143;22674;-68
2021/01/16 03:27:47;;;;;;;14.00;6.10;;;;;;;-12.05;64.68;99085.34;124676;1143;22729;-69
2021/01/16 03:30:15;;;;;;;14.77;6.43;;;;;;;-12.11;65.03;99083.21;124681;1143;22682;-67
2021/01/16 03:32:43;;;;;;;13.53;6.13;;;;;;;-12.15;64.52;99089.70;124808;1142;22712;-68
2021/01/16 03:35:12;;;;;;;15.03;6.07;;;;;;;-12.24;64.89;99085.17;124611;1142;22716;-69
2021/01/16 03:37:39;;;;;;;14.30;5.67;;;;;;;-12.34;65.67;99085.10;124688;1142;22723;-69
2021/01/16 03:40:07;;;;;;;17.40;5.97;;;;;;;-12.42;65.43;99078.82;124684;1143;22800;-69
2021/01/16 03:42:35;;;;;;;16.87;5.07;;;;;;;-12.48;65.54;99090.63;124731;1142;23498;-66
2021/01/16 03:45:07;;;;;;;12.07;5.63;;;;;;;-12.52;66.19;99083.95;124591;1142;22689;-67
2021/01/16 03:47:36;;;;;;;10.63;5.07;;;;;;;-12.47;65.87;99088.84;124841;1143;23473;-68
2021/01/16 03:50:05;;;;;;;12.07;4.67;;;;;;;-12.44;66.03;99093.85;124688;1143;22810;-68
2021/01/16 03:52:34;;;;;;;11.53;4.53;;;;;;;-12.40;66.30;99095.25;124758;1142;22668;-68
2021/01/16 03:55:01;;;;;;;9.53;4.90;;;;;;;-12.41;66.05;99096.23;124622;1142;27168;-68
2021/01/16 03:57:30;;;;;;;13.47;5.37;;;;;;;-12.48;66.09;99095.88;124720;1143;22750;-68
2021/01/16 03:59:57;;;;;;;9.53;5.07;;;;;;;-12.45;65.97;99098.27;124752;1142;22677;-68
2021/01/16 04:02:25;;;;;;;11.00;4.73;;;;;;;-12.43;65.96;99101.61;124708;1143;23640;-68
2021/01/16 04:04:52;;;;;;;12.67;5.13;;;;;;;-12.43;65.89;99103.39;124495;1143;26279;-68
2021/01/16 04:07:20;;;;;;;13.03;5.63;;;;;;;-12.47;65.27;99107.21;124793;1142;23505;-68
2021/01/16 04:09:47;;;;;;;14.27;5.30;;;;;;;-12.58;65.50;99105.45;124614;1142;22711;-68
2021/01/16 04:12:15;;;;;;;12.63;4.20;;;;;;;-12.68;65.54;99115.83;124852;1143;23885;-68
2021/01/16 04:14:42;;;;;;;13.10;5.63;;;;;;;-12.75;65.23;99111.20;124598;1143;22713;-68
2021/01/16 04:17:10;;;;;;;10.93;5.03;;;;;;;-12.83;65.21;99122.28;124788;1142;23066;-67
2021/01/16 04:19:38;;;;;;;14.63;5.17;;;;;;;-12.81;65.25;99119.55;124846;1143;23604;-68
2021/01/16 04:22:06;;;;;;;15.10;5.23;;;;;;;-12.90;65.08;99121.11;124712;1142;22830;-68
2021/01/16 04:24:33;;;;;;;12.03;4.77;;;;;;;-12.96;64.99;99126.81;124862;1143;22698;-67
2021/01/16 04:27:01;;;;;;;14.87;5.53;;;;;;;-13.04;64.41;99123.98;124606;1143;22654;-67
2021/01/16 04:29:28;;;;;;;14.57;5.53;;;;;;;-13.06;64.99;99129.33;124871;1143;22749;-68
2021/01/16 04:31:56;;;;;;;10.20;5.33;;;;;;;-13.07;65.18;99127.66;124589;1143;22942;-68
2021/01/16 04:34:24;;;;;;;15.07;5.57;;;;;;;-13.02;65.32;99132.56;124853;1143;22663;-68
2021/01/16 04:36:51;;;;;;;13.97;5.00;;;;;;;-12.97;65.31;99128.61;124615;1143;22672;-68
2021/01/16 04:39:19;;;;;;;12.83;5.63;;;;;;;-12.94;64.85;99128.38;124757;1143;25514;-68
2021/01/16 04:41:48;;;;;;;10.97;4.97;;;;;;;-13.07;64.26;99119.80;124635;1143;23983;-68
2021/01/16 04:44:15;;;;;;;14.30;5.67;;;;;;;-13.25;64.20;99134.34;124659;1143;22665;-68
2021/01/16 04:46:42;;;;;;;15.23;5.20;;;;;;;-13.39;64.56;99116.23;124657;1143;22742;-68
2021/01/16 04:49:10;;;;;;;13.90;5.00;;;;;;;-13.49;64.05;99123.97;124702;1143;22682;-68
2021/01/16 04:51:43;;;;;;;13.87;5.17;;;;;;;-13.65;64.67;99129.53;124648;1143;22718;-67
2021/01/16 04:54:14;;;;;;;12.97;5.00;;;;;;;-13.69;65.19;99150.81;124877;1142;22769;-67
2021/01/16 04:56:41;;;;;;;11.97;4.83;;;;;;;-13.68;65.57;99153.32;124617;1142;24829;-67
2021/01/16 04:59:09;;;;;;;11.70;4.47;;;;;;;-13.62;65.12;99154.66;124679;1143;22693;-67
2021/01/16 05:01:36;;;;;;;14.43;5.23;;;;;;;-13.67;64.84;99162.84;124663;1143;22682;-67
2021/01/16 05:04:04;;;;;;;10.53;4.47;;;;;;;-13.69;65.56;99158.67;124731;1143;22698;-67
2021/01/16 05:06:31;;;;;;;11.53;5.23;;;;;;;-13.68;65.39;99157.72;124684;1142;23274;-67
2021/01/16 05:08:59;;;;;;;9.40;4.03;;;;;;;-13.70;64.92;99163.07;124555;1143;22750;-69
2021/01/16 05:11:39;;;;;;;11.90;5.37;;;;;;;-13.69;65.17;99169.14;124827;1142;22643;-67
2021/01/16 05:14:16;;;;;;;18.35;4.70;;;;;;;-13.69;65.57;99167.36;124616;1142;22696;-67
2021/01/16 05:16:54;;;;;;;12.75;4.42;;;;;;;-13.65;65.34;99171.43;124792;1142;22659;-67
2021/01/16 05:19:32;;;;;;;16.23;6.03;;;;;;;-13.62;65.23;99176.45;124642;1143;22733;-67
2021/01/16 05:22:00;;;;;;;14.40;5.53;;;;;;;-13.60;65.43;99178.95;124711;1142;22688;-68
2021/01/16 05:24:28;;;;;;;11.67;5.17;;;;;;;-13.57;65.29;99170.04;124714;1142;22692;-68
2021/01/16 05:27:00;;;;;;;17.50;5.63;;;;;;;-13.55;65.67;99179.42;124808;1142;22788;-69
2021/01/16 05:29:28;;;;;;;16.83;6.00;;;;;;;-13.58;64.84;99184.08;124529;1143;22965;-69
2021/01/16 05:31:57;;;;;;;10.47;4.77;;;;;;;-13.61;65.43;99185.14;124735;1143;22723;-69
2021/01/16 05:34:25;;;;;;;19.53;6.60;;;;;;;-13.70;65.29;99185.80;124583;1142;22691;-69
2021/01/16 05:36:53;;;;;;;16.47;5.57;;;;;;;-13.68;65.74;99191.77;124767;1142;22715;-68
2021/01/16 05:39:27;;;;;;;21.33;7.27;;;;;;;-13.70;65.08;99198.90;124717;1142;23492;-68
2021/01/16 05:42:03;;;;;;;18.07;6.20;;;;;;;-13.77;65.72;99195.08;124794;1143;22753;-69
2021/01/16 05:44:30;;;;;;;15.73;6.20;;;;;;;-13.77;65.94;99192.46;124675;1142;22651;-69
2021/01/16 05:46:58;;;;;;;16.87;5.70;;;;;;;-13.78;65.96;99191.63;124745;1143;22690;-69
2021/01/16 05:49:26;;;;;;;18.17;6.40;;;;;;;-13.74;65.99;99189.62;124469;1142;23906;-69
2021/01/16 05:51:54;;;;;;;12.77;5.87;;;;;;;-13.70;65.44;99188.42;124718;1143;22680;-69
2021/01/16 05:54:26;;;;;;;12.93;5.90;;;;;;;-13.69;66.24;99190.09;124504;1143;22677;-69
2021/01/16 05:56:54;;;;;;;15.07;5.43;;;;;;;-13.68;66.18;99197.00;124665;1142;22727;-68
2021/01/16 05:59:21;;;;;;;14.73;5.97;;;;;;;-13.79;66.16;99186.50;124519;1143;23499;-69
2021/01/16 06:01:50;;;;;;;14.53;5.73;;;;;;;-13.90;66.93;99199.55;124726;1143;22665;-69
2021/01/16 06:04:19;;;;;;;15.13;5.93;;;;;;;-14.10;67.98;99201.82;124680;1142;27168;-68
2021/01/16 06:06:47;;;;;;;19.40;7.30;;;;;;;-14.20;68.07;99195.59;124805;1142;22767;-69
2021/01/16 06:09:15;;;;;;;22.03;6.30;;;;;;;-14.27;69.13;99181.27;124532;1143;23659;-69
2021/01/16 06:11:47;;;;;;;18.60;6.73;;;;;;;-14.08;69.71;99213.02;124789;1143;23914;-68
2021/01/16 06:16:26;;;;;;;14.77;5.80;;;;;;;-14.07;68.52;99221.70;120081;1148;22921;-67
2021/01/16 06:18:57;;;;;;;11.50;6.35;;;;;;;-14.11;67.61;99228.09;119998;1148;23097;-67
2021/01/16 06:21:29;;;;;;;14.17;5.87;;;;;;;-14.12;67.27;99226.42;124135;1148;22775;-67
2021/01/16 06:24:00;;;;;;;27.17;7.90;;;;;;;-14.11;67.10;99231.55;124217;1148;22713;-67
2021/01/16 06:26:28;;;;;;;14.75;5.75;;;;;;;-14.11;66.76;99249.03;121647;1148;22939;-68
2021/01/16 06:29:00;;;;;;;17.30;6.60;;;;;;;-14.21;66.46;99230.55;124129;1148;22858;-65
2021/01/16 06:31:29;;;;;;;17.40;6.40;;;;;;;-14.30;65.92;99239.06;123938;1148;22779;-67
2021/01/16 06:34:08;;;;;;;15.53;5.97;;;;;;;-14.37;65.42;99241.27;124167;1148;22803;-67
2021/01/16 06:36:38;;;;;;;18.10;6.30;;;;;;;-14.52;65.24;99246.77;123969;1148;22703;-67
2021/01/16 06:39:07;;;;;;;15.70;6.00;;;;;;;-14.59;65.83;99258.61;124343;1145;22727;-68
2021/01/16 06:41:36;;;;;;;13.80;5.93;;;;;;;-14.63;65.34;99264.98;124005;1147;22736;-67
2021/01/16 06:44:13;;;;;;;13.80;5.53;;;;;;;-14.68;64.21;99258.29;124010;1147;22690;-66
2021/01/16 06:46:48;;;;;;;13.90;5.50;;;;;;;-14.72;64.79;99259.47;124067;1148;22697;-65
2021/01/16 06:49:23;;;;;;;15.33;6.50;;;;;;;-14.78;64.39;99265.10;124153;1148;22682;-65
2021/01/16 06:51:51;;;;;;;14.97;6.10;;;;;;;-14.90;63.59;99271.17;124039;1148;22703;-65
2021/01/16 06:54:30;;;;;;;19.07;6.63;;;;;;;-14.95;64.88;99272.41;124145;1148;22807;-65
2021/01/16 06:57:09;;;;;;;11.53;4.43;;;;;;;-15.10;63.66;99254.22;123984;1148;23350;-66
2021/01/16 06:59:38;;;;;;;15.07;5.63;;;;;;;-15.05;63.42;99280.05;124155;1148;22704;-68
2021/01/16 07:02:24;;;;;;;13.53;5.47;;;;;;;-15.08;63.89;99281.09;123954;1148;22688;-65
2021/01/16 07:04:54;;;;;;;24.10;6.87;;;;;;;-15.02;64.48;99282.47;124090;1147;22770;-65
2021/01/16 07:07:37;;;;;;;14.10;5.27;;;;;;;-15.07;64.09;99287.98;123950;1148;22657;-66
2021/01/16 07:10:10;;;;;;;17.77;5.50;;;;;;;-15.10;63.94;99295.19;124233;1148;22666;-66
2021/01/16 07:12:38;;;;;;;15.40;5.03;;;;;;;-15.15;63.25;99300.74;124008;1147;22728;-67
2021/01/16 07:15:06;;;;;;;24.67;7.53;;;;;;;-15.11;63.50;99304.80;124072;1149;22789;-68
2021/01/16 07:17:34;;;;;;;20.47;6.60;;;;;;;-15.10;63.86;99298.64;124013;1148;22776;-68
2021/01/16 07:20:02;;;;;;;18.37;6.40;;;;;;;-15.06;64.33;99296.66;124125;1148;22663;-66
2021/01/16 07:22:30;;;;;;;15.93;5.07;;;;;;;-14.97;62.80;99303.04;124003;1148;22962;-66
2021/01/16 07:25:00;;;;;;;14.23;5.10;;;;;;;-14.96;63.45;99307.33;124210;1148;23450;-67
2021/01/16 07:27:28;;;;;;;13.77;5.20;;;;;;;-14.91;63.90;99323.55;123964;1148;22697;-67
2021/01/16 07:29:57;;;;;;;24.07;6.70;;;;;;;-14.87;63.08;99320.63;124178;1148;22702;-67
2021/01/16 07:33:03;;;;;;;16.10;5.37;;;;;;;-14.81;63.77;99314.13;124025;1149;22768;-67
2021/01/16 07:35:30;;;;;;;11.70;4.00;;;;;;;-14.81;62.43;99322.81;123453;1148;22900;-67
2021/01/16 07:37:58;;;;;;;18.00;5.83;;;;;;;-14.82;63.26;99318.52;119218;1150;24545;-65
2021/01/16 07:40:26;;;;;;;13.20;4.73;;;;;;;-14.77;62.87;99308.61;124183;1148;22768;-66
2021/01/16 07:42:54;;;;;;;18.67;5.70;;;;;;;-14.74;62.90;99307.56;123848;1148;22731;-65
2021/01/16 07:45:31;;;;;;;12.03;4.63;;;;;;;-14.72;62.17;99314.37;124153;1148;22824;-67
2021/01/16 07:48:05;;;;;;;14.07;5.23;;;;;;;-14.74;62.67;99320.64;123935;1149;22663;-68
2021/01/16 07:50:36;;;;;;;15.30;5.47;;;;;;;-14.78;62.74;99330.45;123308;1148;26040;-67
2021/01/16 07:53:08;;;;;;;9.83;4.53;;;;;;;-14.77;61.57;99329.52;119616;1149;22870;-67
2021/01/16 07:55:36;;;;;;;13.15;5.40;;;;;;;-14.88;62.03;99337.25;124217;1148;22681;-68
2021/01/16 07:58:23;;;;;;;20.43;5.57;;;;;;;-15.10;62.39;99332.61;124129;1148;23982;-70
2021/01/16 08:01:02;;;;;;;15.93;5.60;;;;;;;-15.09;62.59;99338.67;124169;1148;22730;-70
2021/01/16 08:03:46;;;;;;;18.17;6.37;;;;;;;-15.02;63.02;99336.50;124051;1148;22793;-69
2021/01/16 08:06:31;;;;;;;21.97;6.90;;;;;;;-15.04;63.21;99333.98;124095;1148;22721;-67
2021/01/16 08:09:04;;;;;;;16.70;6.67;;;;;;;-14.97;62.92;99339.63;123899;1148;22693;-70
2021/01/16 08:11:33;;;;;;;19.90;7.43;;;;;;;-14.82;63.00;99339.44;124110;1148;22780;-69
2021/01/16 08:14:05;;;;;;;19.50;6.90;;;;;;;-14.67;63.34;99340.17;123875;1148;22706;-70
2021/01/16 08:16:33;;;;;;;13.55;6.35;;;;;;;-14.48;62.59;99330.15;124121;1148;22723;-68
2021/01/16 08:19:04;;;;;;;16.50;6.53;;;;;;;-14.36;62.87;99331.05;124177;1145;23514;-68
2021/01/16 08:21:31;;;;;;;13.13;5.47;;;;;;;-14.26;62.09;99337.30;124008;1148;22721;-67
2021/01/16 08:24:03;;;;;;;12.90;4.73;;;;;;;-14.18;62.16;99337.63;124012;1149;23574;-69
2021/01/16 08:26:32;;;;;;;14.10;5.37;;;;;;;-14.03;61.93;99340.94;124052;1148;22704;-70
2021/01/16 08:28:59;;;;;;;9.60;4.40;;;;;;;-13.90;61.95;99340.91;124208;1146;22781;-69
2021/01/16 08:31:28;;;;;;;17.40;5.40;;;;;;;-13.88;61.39;99342.48;124011;1147;22700;-67
2021/01/16 08:33:56;;;;;;;12.27;4.90;;;;;;;-13.82;61.27;99335.95;124216;1146;22695;-69
2021/01/16 08:36:23;;;;;;;19.53;5.70;;;;;;;-13.78;60.32;99334.80;123937;1147;22778;-69
2021/01/16 08:38:51;;;;;;;10.50;4.30;;;;;;;-13.84;60.07;99333.44;124190;1148;23862;-69
2021/01/16 08:41:24;;;;;;;15.37;4.93;;;;;;;-13.88;59.80;99339.86;124191;1146;22770;-68
2021/01/16 08:43:53;;;;;;;21.03;4.87;;;;;;;-13.93;59.44;99336.72;124380;1147;22668;-69
2021/01/16 08:46:25;;;;;;;19.95;6.05;;;;;;;-14.05;59.96;99341.05;124173;1147;23265;-68
2021/01/16 08:49:02;;;;;;;17.80;6.03;;;;;;;-13.99;59.64;99330.13;124350;1146;22694;-68
2021/01/16 08:51:34;;;;;;;11.38;4.92;;;;;;;-13.92;60.29;99327.92;124439;1143;22752;-67
2021/01/16 08:54:14;;;;;;;11.13;4.77;;;;;;;-13.84;59.62;99329.98;124685;1144;22699;-69
2021/01/16 08:56:43;;;;;;;16.83;5.50;;;;;;;-13.80;59.99;99327.05;124588;1144;22704;-66
2021/01/16 08:59:29;;;;;;;24.33;8.37;;;;;;;-13.78;59.44;99332.18;124641;1142;22777;-68
2021/01/16 09:02:08;;;;;;;45.93;15.83;;;;;;;-13.85;59.78;99334.42;124451;1144;22654;-69
2021/01/16 09:04:37;;;;;;;19.50;6.63;;;;;;;-13.87;59.31;99338.92;124599;1144;23653;-68
2021/01/16 09:07:15;;;;;;;17.43;6.20;;;;;;;-13.77;59.66;99344.33;124400;1144;22686;-70
2021/01/16 09:10:06;;;;;;;316.63;97.10;;;;;;;-13.78;58.76;99332.18;124646;1144;22647;-69
2021/01/16 09:12:35;;;;;;;41.97;15.40;;;;;;;-13.86;59.37;99324.05;124457;1144;22767;-69
2021/01/16 09:15:28;;;;;;;19.17;6.50;;;;;;;-13.78;59.69;99334.80;124662;1143;22829;-69
2021/01/16 09:18:14;;;;;;;18.97;6.90;;;;;;;-13.63;59.53;99329.30;124495;1143;23716;-69
2021/01/16 09:20:46;;;;;;;13.23;4.97;;;;;;;-13.54;59.44;99329.56;124602;1144;22684;-69
2021/01/16 09:23:19;;;;;;;16.37;5.37;;;;;;;-13.45;59.29;99329.75;124469;1143;23581;-69
2021/01/16 09:25:50;;;;;;;19.60;6.75;;;;;;;-13.39;60.21;99329.30;124390;1145;22735;-68
2021/01/16 09:28:41;;;;;;;13.95;4.80;;;;;;;-13.35;59.38;99333.37;124468;1144;22721;-69
2021/01/16 09:31:21;;;;;;;20.87;6.37;;;;;;;-13.40;58.68;99335.48;124454;1143;22906;-69
2021/01/16 09:33:50;;;;;;;9.93;4.27;;;;;;;-13.52;59.30;99327.67;124484;1143;22681;-68
2021/01/16 09:36:36;;;;;;;44.27;9.43;;;;;;;-13.56;59.06;99326.25;124547;1144;22724;-69
2021/01/16 09:39:14;;;;;;;20.10;6.30;;;;;;;-13.68;58.53;99322.70;124399;1144;22683;-63
2021/01/16 09:41:41;;;;;;;12.70;4.83;;;;;;;-13.68;59.88;99322.70;124459;1144;22690;-67
2021/01/16 09:44:09;;;;;;;11.60;4.47;;;;;;;-13.57;60.07;99330.66;124515;1144;22758;-68
2021/01/16 09:46:39;;;;;;;109.47;25.73;;;;;;;-13.49;59.05;99333.54;124738;1143;22759;-68
2021/01/16 09:49:10;;;;;;;71.70;16.23;;;;;;;-13.48;58.80;99329.14;124482;1144;22696;-68
2021/01/16 09:51:38;;;;;;;28.63;7.73;;;;;;;-13.51;58.45;99330.19;124748;1143;22714;-68
2021/01/16 09:54:15;;;;;;;29.33;9.67;;;;;;;-13.55;58.72;99339.20;124598;1144;23501;-68
2021/01/16 09:56:49;;;;;;;30.82;7.80;;;;;;;-13.57;58.60;99330.66;124805;1143;22696;-68
2021/01/16 09:59:21;;;;;;;23.73;6.93;;;;;;;-13.58;58.70;99328.14;124512;1144;22665;-66
2021/01/16 10:02:10;;;;;;;40.70;8.70;;;;;;;-13.60;58.60;99325.63;124628;1142;22789;-68
2021/01/16 10:04:43;;;;;;;10.95;4.22;;;;;;;-13.58;58.77;99317.66;124491;1144;22652;-67
2021/01/16 10:07:15;;;;;;;22.37;7.20;;;;;;;-13.50;58.35;99315.31;124823;1144;22674;-68
2021/01/16 10:09:50;;;;;;;25.07;6.80;;;;;;;-13.40;58.45;99321.54;124402;1144;23383;-68
2021/01/16 10:12:32;;;;;;;21.40;6.07;;;;;;;-13.35;58.11;99315.02;124890;1144;22702;-68
2021/01/16 10:15:04;;;;;;;16.33;6.00;;;;;;;-13.33;58.03;99315.75;124608;1144;22744;-68
2021/01/16 10:17:40;;;;;;;47.73;12.40;;;;;;;-13.36;57.56;99310.73;124818;1144;22757;-68
2021/01/16 10:20:12;;;;;;;94.37;23.40;;;;;;;-13.39;57.81;99310.95;124676;1143;22729;-68
2021/01/16 10:22:46;;;;;;;30.17;10.00;;;;;;;-13.43;58.20;99306.07;124692;1142;22675;-68
2021/01/16 10:25:14;;;;;;;23.03;7.97;;;;;;;-13.45;58.08;99306.18;124471;1144;22684;-68
2021/01/16 10:27:56;;;;;;;17.03;4.87;;;;;;;-13.44;58.31;99309.63;124651;1143;22688;-68
2021/01/16 10:30:34;;;;;;;21.27;6.43;;;;;;;-13.38;58.29;99322.27;124650;1143;22665;-69
2021/01/16 10:33:02;;;;;;;17.90;6.50;;;;;;;-13.27;58.31;99322.34;124724;1142;22652;-67
2021/01/16 10:35:30;;;;;;;18.67;5.37;;;;;;;-13.26;58.04;99308.26;124327;1144;22735;-68
2021/01/16 10:38:00;;;;;;;20.83;7.87;;;;;;;-13.27;58.10;99304.80;124828;1143;22687;-67
2021/01/16 10:40:29;;;;;;;24.40;8.40;;;;;;;-13.37;57.43;99305.59;124658;1144;23602;-67
2021/01/16 10:42:58;;;;;;;21.37;6.47;;;;;;;-13.47;58.08;99302.83;124762;1143;22705;-68
2021/01/16 10:45:30;;;;;;;22.63;6.67;;;;;;;-13.42;58.40;99303.34;124017;1142;22699;-67
2021/01/16 10:48:15;;;;;;;12.07;4.63;;;;;;;-13.35;58.26;99306.33;124750;1143;23447;-67
2021/01/16 10:50:44;;;;;;;14.33;5.80;;;;;;;-13.39;57.79;99302.25;124472;1144;26706;-68
2021/01/16 10:53:11;;;;;;;9.63;5.07;;;;;;;-13.49;58.39;99302.10;124752;1144;22673;-67
2021/01/16 10:55:54;;;;;;;12.83;5.47;;;;;;;-13.47;58.77;99302.83;124608;1144;28225;-67
2021/01/16 10:58:26;;;;;;;12.43;5.10;;;;;;;-13.38;59.04;99296.06;124602;1143;22682;-67
2021/01/16 11:00:57;;;;;;;11.37;4.33;;;;;;;-13.29;59.12;99301.48;124557;1143;22699;-67
2021/01/16 11:03:29;;;;;;;16.13;5.77;;;;;;;-13.24;58.87;99291.48;124685;1144;22701;-67
2021/01/16 11:06:08;;;;;;;13.83;5.77;;;;;;;-13.26;58.95;99295.99;124572;1143;22654;-68
2021/01/16 11:08:36;;;;;;;18.87;6.50;;;;;;;-13.27;59.21;99296.94;124698;1144;23286;-67
2021/01/16 11:11:23;;;;;;;21.43;6.87;;;;;;;-13.30;59.41;99297.19;124555;1144;22684;-67
2021/01/16 11:13:50;;;;;;;17.23;6.60;;;;;;;-13.37;59.47;99298.58;124561;1143;22675;-67
2021/01/16 11:16:23;;;;;;;19.47;5.73;;;;;;;-13.41;60.16;99301.53;124411;1143;22747;-68
2021/01/16 11:18:52;;;;;;;14.27;5.93;;;;;;;-13.43;60.29;99298.20;124684;1143;22765;-67
2021/01/16 11:21:39;;;;;;;17.80;6.77;;;;;;;-13.51;60.57;99272.56;124534;1144;25398;-67
2021/01/16 11:24:20;;;;;;;17.90;6.60;;;;;;;-13.26;60.26;99293.38;124704;1144;22680;-68
2021/01/16 11:26:48;;;;;;;19.13;5.97;;;;;;;-13.24;59.72;99291.48;124651;1143;22715;-68
2021/01/16 11:29:18;;;;;;;20.07;6.23;;;;;;;-13.25;60.07;99284.56;124713;1144;22770;-67
2021/01/16 11:31:52;;;;;;;30.65;9.10;;;;;;;-13.21;59.96;99287.80;124536;1143;23159;-67